Time;durP1;ratioP1;P1;durP2;ratioP2;P2;SDS_P1;SDS_P2;PMS_P1;PMS_P2;Temp;Humidity;BMP_temperature;BMP_pressure;BME280_temperature;BME280_humidity;BME280_pressure;Samples;Min_cycle;Max_cycle;Signal;HPM_P1;HPM_P2
2024/04/13 00:01:49;;;;;;;6.22;1.70;;;14.20;99.90;;;;;;5405832;26;20019;-67
2024/04/13 00:04:16;;;;;;;2.53;1.10;;;14.30;99.90;;;;;;5393349;26;20004;-67
2024/04/13 00:06:43;;;;;;;4.18;1.27;;;14.30;99.90;;;;;;5398729;26;20016;-66
2024/04/13 00:09:11;;;;;;;3.53;1.77;;;14.30;99.90;;;;;;5381049;26;20000;-67
2024/04/13 00:11:38;;;;;;;4.32;1.40;;;14.30;99.90;;;;;;5393414;26;20000;-66
2024/04/13 00:14:05;;;;;;;2.30;1.20;;;14.20;99.90;;;;;;5395701;26;19996;-67
2024/04/13 00:16:32;;;;;;;2.25;1.25;;;14.20;99.90;;;;;;5402249;26;20003;-67
2024/04/13 00:18:59;;;;;;;3.92;1.52;;;14.20;99.90;;;;;;5391786;26;20055;-67
2024/04/13 00:21:26;;;;;;;4.13;1.40;;;14.20;99.90;;;;;;5409281;26;20468;-67
2024/04/13 00:23:54;;;;;;;5.43;1.27;;;14.20;99.90;;;;;;5396275;26;20036;-67
2024/04/13 00:26:24;;;;;;;3.45;1.33;;;14.20;99.90;;;;;;5407491;26;20015;-67
2024/04/13 00:28:55;;;;;;;2.15;1.25;;;14.20;99.90;;;;;;5405469;26;20014;-66
2024/04/13 00:31:22;;;;;;;3.20;1.25;;;14.10;99.90;;;;;;5394869;26;20015;-67
2024/04/13 00:33:49;;;;;;;4.22;1.83;;;14.10;99.90;;;;;;5403089;26;20012;-67
2024/04/13 00:36:16;;;;;;;4.68;1.27;;;14.10;99.90;;;;;;5402278;26;20004;-67
2024/04/13 00:38:43;;;;;;;4.43;2.03;;;14.10;99.90;;;;;;5410863;26;20007;-67
2024/04/13 00:41:12;;;;;;;3.75;1.45;;;14.10;99.90;;;;;;5392646;26;20080;-65
2024/04/13 00:43:39;;;;;;;4.50;1.35;;;14.10;99.90;;;;;;5387812;26;20028;-65
2024/04/13 00:46:16;;;;;;;4.93;1.80;;;14.10;99.90;;;;;;5385377;26;20473;-66
2024/04/13 00:48:43;;;;;;;3.15;1.45;;;14.10;99.90;;;;;;5386582;26;20040;-65
2024/04/13 00:51:12;;;;;;;2.17;1.20;;;14.10;99.90;;;;;;5399898;26;20035;-66
2024/04/13 00:53:40;;;;;;;9.70;1.90;;;14.10;99.90;;;;;;5388880;26;20012;-66
2024/04/13 00:56:07;;;;;;;3.78;2.00;;;14.10;99.90;;;;;;5398584;26;20000;-67
2024/04/13 00:58:35;;;;;;;4.25;1.77;;;14.10;99.90;;;;;;5397257;26;21173;-66
2024/04/13 01:01:05;;;;;;;4.53;1.65;;;14.10;99.90;;;;;;5388001;26;20000;-65
2024/04/13 01:03:35;;;;;;;8.98;1.95;;;14.10;99.90;;;;;;5400071;26;20466;-66
2024/04/13 01:06:03;;;;;;;9.25;2.10;;;14.00;99.90;;;;;;5389299;26;20081;-68
2024/04/13 01:08:34;;;;;;;7.65;1.65;;;14.10;99.90;;;;;;5387814;26;20343;-68
2024/04/13 01:11:01;;;;;;;4.38;1.85;;;14.10;99.90;;;;;;5388295;26;20000;-67
2024/04/13 01:13:28;;;;;;;8.23;2.63;;;14.10;99.90;;;;;;5382453;26;20004;-67
2024/04/13 01:15:58;;;;;;;4.63;1.88;;;14.10;99.90;;;;;;5383551;26;20000;-67
2024/04/13 01:18:26;;;;;;;4.82;1.95;;;14.00;99.90;;;;;;5378431;26;20421;-67
2024/04/13 01:20:53;;;;;;;4.40;2.00;;;14.00;99.90;;;;;;5380699;26;20021;-67
2024/04/13 01:23:20;;;;;;;10.25;2.83;;;14.00;99.90;;;;;;5395371;26;20003;-67
2024/04/13 01:25:47;;;;;;;9.02;2.17;;;13.90;99.90;;;;;;5376178;26;20053;-67
2024/04/13 01:28:14;;;;;;;6.43;2.38;;;13.80;99.90;;;;;;5383870;26;20000;-67
2024/04/13 01:30:41;;;;;;;8.05;2.20;;;13.90;99.90;;;;;;5382335;26;20474;-67
2024/04/13 01:33:09;;;;;;;7.65;2.80;;;13.90;99.90;;;;;;5393303;26;20346;-67
2024/04/13 01:35:36;;;;;;;5.30;1.85;;;13.90;99.90;;;;;;5385455;26;20003;-67
2024/04/13 01:38:03;;;;;;;7.47;2.60;;;13.90;99.90;;;;;;5400061;26;19999;-67
2024/04/13 01:40:30;;;;;;;10.27;1.90;;;13.90;99.90;;;;;;5397294;26;20016;-67
2024/04/13 01:42:58;;;;;;;8.40;2.30;;;13.90;99.90;;;;;;5397418;26;20003;-66
2024/04/13 01:45:25;;;;;;;5.78;1.95;;;13.90;99.90;;;;;;5391210;26;20054;-66
2024/04/13 01:47:52;;;;;;;6.90;1.95;;;13.90;99.90;;;;;;5386123;26;20015;-68
2024/04/13 01:50:19;;;;;;;4.97;1.90;;;13.90;99.90;;;;;;5379101;26;20008;-67
2024/04/13 01:52:46;;;;;;;5.32;1.90;;;13.80;99.90;;;;;;5391408;26;20007;-68
2024/04/13 01:55:13;;;;;;;4.13;1.95;;;13.80;99.90;;;;;;5382088;26;20469;-67
2024/04/13 01:57:40;;;;;;;4.85;1.98;;;13.80;99.90;;;;;;5386200;26;20015;-69
2024/04/13 02:00:08;;;;;;;7.97;2.45;;;13.80;99.90;;;;;;5385717;26;20008;-66
2024/04/13 02:02:35;;;;;;;5.28;1.70;;;13.80;99.90;;;;;;5397755;26;19999;-67
2024/04/13 02:05:02;;;;;;;11.88;3.13;;;13.80;99.90;;;;;;5386792;26;20004;-66
2024/04/13 02:07:29;;;;;;;10.68;2.50;;;13.80;99.90;;;;;;5384049;26;20004;-67
2024/04/13 02:09:56;;;;;;;5.50;1.83;;;13.70;99.90;;;;;;5381955;26;20019;-67
2024/04/13 02:12:23;;;;;;;5.72;2.10;;;13.80;99.90;;;;;;5394067;26;20018;-67
2024/04/13 02:14:50;;;;;;;7.65;2.38;;;13.70;99.90;;;;;;5376361;26;20014;-67
2024/04/13 02:17:17;;;;;;;5.90;2.08;;;13.70;99.90;;;;;;5380674;26;20014;-67
2024/04/13 02:19:45;;;;;;;5.03;2.40;;;13.60;99.90;;;;;;5400301;26;20482;-67
2024/04/13 02:22:12;;;;;;;6.82;2.38;;;13.60;99.90;;;;;;5381633;26;20019;-67
2024/04/13 02:24:39;;;;;;;6.30;2.45;;;13.60;99.90;;;;;;5389814;26;20015;-67
2024/04/13 02:27:06;;;;;;;7.85;2.20;;;13.60;99.90;;;;;;5376622;26;20000;-66
2024/04/13 02:29:33;;;;;;;5.35;2.38;;;13.60;99.90;;;;;;5387344;26;20004;-67
2024/04/13 02:32:00;;;;;;;8.45;2.65;;;13.60;99.90;;;;;;5396556;26;20363;-67
2024/04/13 02:34:27;;;;;;;4.30;2.20;;;13.60;99.90;;;;;;5384565;26;20004;-67
2024/04/13 02:36:54;;;;;;;7.40;2.20;;;13.60;99.90;;;;;;5398616;26;20463;-67
2024/04/13 02:39:21;;;;;;;6.07;2.20;;;13.60;99.90;;;;;;5396408;26;20412;-67
2024/04/13 02:41:48;;;;;;;7.88;2.15;;;13.50;99.90;;;;;;5396307;26;20000;-67
2024/04/13 02:44:16;;;;;;;4.88;1.88;;;13.50;99.90;;;;;;5374846;26;20008;-67
2024/04/13 02:46:42;;;;;;;7.40;2.55;;;13.50;99.90;;;;;;5393541;26;20089;-67
2024/04/13 02:49:10;;;;;;;8.30;2.35;;;13.50;99.90;;;;;;5387279;26;20003;-67
2024/04/13 02:51:37;;;;;;;7.63;2.67;;;13.40;99.90;;;;;;5392307;26;20000;-67
2024/04/13 02:54:04;;;;;;;6.13;2.13;;;13.40;99.90;;;;;;5390429;26;20505;-68
2024/04/13 02:56:33;;;;;;;8.38;3.63;;;13.40;99.90;;;;;;5384346;26;20004;-67
2024/04/13 02:59:00;;;;;;;3.83;1.95;;;13.40;99.90;;;;;;5394186;26;20023;-67
2024/04/13 03:01:27;;;;;;;9.25;2.40;;;13.40;99.90;;;;;;5391030;26;20003;-67
2024/04/13 03:03:54;;;;;;;5.55;2.17;;;13.30;99.90;;;;;;5398533;26;20474;-67
2024/04/13 03:06:21;;;;;;;10.20;2.80;;;13.30;99.90;;;;;;5379689;26;20078;-67
2024/04/13 03:08:50;;;;;;;8.85;2.58;;;13.30;99.90;;;;;;5388097;26;20077;-67
2024/04/13 03:11:18;;;;;;;10.10;2.67;;;13.30;99.90;;;;;;5387723;26;20010;-68
2024/04/13 03:13:45;;;;;;;6.97;2.33;;;13.30;99.90;;;;;;5388844;26;20475;-67
2024/04/13 03:16:12;;;;;;;5.18;1.90;;;13.30;99.90;;;;;;5391940;26;20004;-67
2024/04/13 03:18:42;;;;;;;13.00;3.90;;;13.30;99.90;;;;;;5380270;26;20082;-67
2024/04/13 03:21:09;;;;;;;9.45;3.15;;;13.20;99.90;;;;;;5388566;26;20026;-67
2024/04/13 03:23:37;;;;;;;7.55;2.85;;;13.20;99.90;;;;;;5406717;26;20018;-68
2024/04/13 03:26:04;;;;;;;8.68;2.85;;;13.20;99.90;;;;;;5382331;26;20001;-67
2024/04/13 03:28:33;;;;;;;9.50;2.42;;;13.20;99.90;;;;;;5381497;26;20008;-67
2024/04/13 03:31:01;;;;;;;7.43;2.50;;;13.20;99.90;;;;;;5386804;26;20000;-68
2024/04/13 03:33:28;;;;;;;7.10;2.97;;;13.20;99.90;;;;;;5386718;26;20004;-67
2024/04/13 03:36:03;;;;;;;5.40;2.28;;;13.20;99.90;;;;;;5383895;26;20015;-67
2024/04/13 03:38:30;;;;;;;10.48;2.55;;;13.20;99.90;;;;;;5399340;26;19999;-67
2024/04/13 03:41:01;;;;;;;12.07;2.40;;;13.20;99.90;;;;;;5386764;26;20102;-68
2024/04/13 03:43:28;;;;;;;8.65;2.78;;;13.20;99.90;;;;;;5405179;26;20004;-66
2024/04/13 03:45:57;;;;;;;10.38;3.25;;;13.10;99.90;;;;;;5385039;26;20015;-68
2024/04/13 03:48:24;;;;;;;12.40;3.05;;;13.10;99.90;;;;;;5396968;26;20011;-68
2024/04/13 03:50:51;;;;;;;10.43;3.35;;;13.10;99.90;;;;;;5394383;26;20035;-68
2024/04/13 03:53:18;;;;;;;10.30;3.35;;;13.20;99.90;;;;;;5405830;26;20010;-68
2024/04/13 03:55:45;;;;;;;11.32;3.00;;;13.20;99.90;;;;;;5398227;26;20456;-67
2024/04/13 03:58:12;;;;;;;10.95;3.05;;;13.10;99.90;;;;;;5397519;26;20028;-67
2024/04/13 04:00:41;;;;;;;13.65;3.25;;;13.10;99.90;;;;;;5406390;26;20007;-68
2024/04/13 04:03:08;;;;;;;9.02;3.42;;;13.10;99.90;;;;;;5383812;26;20023;-67
2024/04/13 04:05:36;;;;;;;11.88;2.75;;;13.10;99.90;;;;;;5397553;26;20007;-66
2024/04/13 04:08:03;;;;;;;9.77;3.38;;;13.10;99.90;;;;;;5392681;26;20077;-66
2024/04/13 04:10:30;;;;;;;10.55;3.13;;;13.10;99.90;;;;;;5390614;26;20020;-66
2024/04/13 04:13:01;;;;;;;9.98;3.00;;;13.10;99.90;;;;;;5389221;26;20352;-66
2024/04/13 04:15:28;;;;;;;10.90;3.70;;;13.10;99.90;;;;;;5410209;26;20010;-66
2024/04/13 04:17:55;;;;;;;10.93;3.30;;;13.10;99.90;;;;;;5386881;26;20015;-67
2024/04/13 04:20:22;;;;;;;13.23;3.33;;;13.00;99.90;;;;;;5391806;26;20001;-66
2024/04/13 04:22:50;;;;;;;10.02;4.03;;;13.00;99.90;;;;;;5387500;26;20008;-66
2024/04/13 04:25:20;;;;;;;18.10;4.45;;;13.00;99.90;;;;;;5387184;26;20452;-67
2024/04/13 04:27:48;;;;;;;12.35;3.40;;;12.90;99.90;;;;;;5398828;26;20379;-66
2024/04/13 04:30:15;;;;;;;7.70;4.28;;;12.80;99.90;;;;;;5386457;26;20382;-66
2024/04/13 04:32:45;;;;;;;7.32;3.80;;;12.80;99.90;;;;;;5399721;26;20096;-66
2024/04/13 04:35:12;;;;;;;6.75;3.13;;;12.80;99.90;;;;;;5376894;26;20011;-68
2024/04/13 04:37:39;;;;;;;11.32;3.28;;;12.80;99.90;;;;;;5383871;26;20409;-66
2024/04/13 04:40:09;;;;;;;7.93;3.67;;;12.80;99.90;;;;;;5398006;26;19999;-67
2024/04/13 04:42:36;;;;;;;11.50;4.03;;;12.70;99.90;;;;;;5399773;26;20599;-67
2024/04/13 04:45:13;;;;;;;10.52;3.70;;;12.70;99.90;;;;;;5401334;26;20322;-67
2024/04/13 04:47:40;;;;;;;11.43;4.25;;;12.70;99.90;;;;;;5402276;26;20431;-67
2024/04/13 04:50:07;;;;;;;14.70;4.10;;;12.70;99.90;;;;;;5405998;26;20003;-66
2024/04/13 04:52:34;;;;;;;9.75;4.63;;;12.70;99.90;;;;;;5404030;26;20012;-67
2024/04/13 04:55:01;;;;;;;9.73;4.07;;;12.70;99.90;;;;;;5409966;26;19999;-67
2024/04/13 04:57:29;;;;;;;6.72;4.13;;;12.70;99.90;;;;;;5404250;26;20036;-68
2024/04/13 04:59:56;;;;;;;6.95;4.07;;;12.70;99.90;;;;;;5395859;26;20008;-68
2024/04/13 05:02:24;;;;;;;11.55;4.78;;;12.70;99.90;;;;;;5407423;26;19996;-67
2024/04/13 05:04:51;;;;;;;16.63;4.40;;;12.70;99.90;;;;;;5393373;26;20015;-67
2024/04/13 05:07:19;;;;;;;11.98;5.45;;;12.70;99.90;;;;;;5398672;26;20031;-67
2024/04/13 05:09:46;;;;;;;13.85;5.25;;;12.60;99.90;;;;;;5387955;26;20008;-68
2024/04/13 05:12:13;;;;;;;12.90;4.68;;;12.60;99.90;;;;;;5382344;26;20000;-67
2024/04/13 05:14:40;;;;;;;12.32;4.63;;;12.60;99.90;;;;;;5384160;26;20470;-68
2024/04/13 05:17:07;;;;;;;13.68;5.78;;;12.60;99.90;;;;;;5385458;26;20458;-68
2024/04/13 05:19:38;;;;;;;11.23;5.65;;;12.60;99.90;;;;;;5391857;26;20008;-68
2024/04/13 05:22:05;;;;;;;16.65;5.85;;;12.60;99.90;;;;;;5403467;26;20044;-68
2024/04/13 05:24:32;;;;;;;10.95;5.90;;;12.50;99.90;;;;;;5383757;26;20008;-67
2024/04/13 05:27:05;;;;;;;17.90;6.40;;;12.60;99.90;;;;;;5402466;26;20008;-68
2024/04/13 05:29:34;;;;;;;;;;;12.50;99.90;;;;;;5396899;26;20004;-66
2024/04/13 05:32:02;;;;;;;11.13;5.28;;;12.50;99.90;;;;;;5394160;26;19936;-66
2024/04/13 05:34:29;;;;;;;13.38;6.50;;;12.50;99.90;;;;;;5399196;26;20018;-66
2024/04/13 05:36:56;;;;;;;13.70;6.20;;;12.60;99.90;;;;;;5385205;26;20050;-66
2024/04/13 05:39:24;;;;;;;16.15;7.28;;;12.60;99.90;;;;;;5385700;26;20294;-69
2024/04/13 05:41:50;;;;;;;21.85;6.88;;;12.70;99.90;;;;;;5388749;26;20022;-66
2024/04/13 05:44:18;;;;;;;13.60;7.55;;;12.70;99.90;;;;;;5383951;26;19999;-66
2024/04/13 05:46:45;;;;;;;18.17;8.55;;;12.70;99.90;;;;;;5389164;26;20470;-67
2024/04/13 05:49:12;;;;;;;15.60;8.40;;;12.70;99.90;;;;;;5398224;26;20007;-66
2024/04/13 05:51:40;;;;;;;17.73;8.82;;;12.70;99.90;;;;;;5396897;26;20081;-65
2024/04/13 05:54:07;;;;;;;20.38;8.80;;;12.70;99.90;;;;;;5378772;26;20128;-66
2024/04/13 05:56:34;;;;;;;21.30;10.30;;;12.70;99.90;;;;;;5391259;26;20023;-66
2024/04/13 05:59:01;;;;;;;19.25;8.77;;;12.70;99.90;;;;;;5378415;26;20471;-67
2024/04/13 06:01:28;;;;;;;21.73;10.68;;;12.80;99.90;;;;;;5396662;26;20019;-67
2024/04/13 06:03:55;;;;;;;19.17;9.57;;;12.80;99.90;;;;;;5401029;26;20076;-66
2024/04/13 06:06:22;;;;;;;26.42;11.38;;;12.80;99.90;;;;;;5398766;26;20085;-67
2024/04/13 06:08:49;;;;;;;15.75;9.43;;;12.90;99.90;;;;;;5402189;26;19999;-66
2024/04/13 06:11:16;;;;;;;15.48;9.05;;;12.90;99.90;;;;;;5388213;26;20082;-67
2024/04/13 06:13:43;;;;;;;18.40;9.23;;;13.00;99.90;;;;;;5377257;26;20023;-67
2024/04/13 06:16:10;;;;;;;14.73;9.18;;;13.00;99.90;;;;;;5387906;26;20007;-67
2024/04/13 06:18:37;;;;;;;15.65;7.90;;;13.00;99.90;;;;;;5401650;26;20004;-67
2024/04/13 06:21:05;;;;;;;10.90;7.07;;;13.10;99.90;;;;;;5391106;26;20015;-67
2024/04/13 06:23:32;;;;;;;17.08;8.32;;;13.10;99.90;;;;;;5396048;26;20000;-67
2024/04/13 06:25:59;;;;;;;13.95;7.90;;;13.20;99.90;;;;;;5386621;26;20000;-67
2024/04/13 06:28:26;;;;;;;18.02;7.28;;;13.20;99.90;;;;;;5390609;26;20032;-67
2024/04/13 06:30:54;;;;;;;11.18;6.18;;;13.20;99.90;;;;;;5389865;26;20008;-67
2024/04/13 06:33:21;;;;;;;12.52;5.80;;;13.30;99.90;;;;;;5389795;26;20003;-67
2024/04/13 06:35:51;;;;;;;14.07;5.90;;;13.30;99.90;;;;;;5392639;26;20007;-68
2024/04/13 06:38:23;;;;;;;11.00;5.45;;;13.40;99.90;;;;;;5382478;26;20020;-68
2024/04/13 06:40:55;;;;;;;12.38;4.90;;;13.50;99.90;;;;;;5379221;26;20685;-67
2024/04/13 06:43:22;;;;;;;9.88;5.80;;;13.60;99.90;;;;;;5393147;26;20077;-67
2024/04/13 06:45:50;;;;;;;11.85;5.45;;;13.60;99.90;;;;;;5393255;26;20032;-69
2024/04/13 06:48:17;;;;;;;9.90;5.03;;;13.70;99.90;;;;;;5397542;26;20004;-67
2024/04/13 06:50:45;;;;;;;12.05;4.85;;;13.70;99.90;;;;;;5397362;26;20003;-67
2024/04/13 06:53:12;;;;;;;11.07;5.20;;;13.80;99.90;;;;;;5391714;26;20072;-67
2024/04/13 06:55:38;;;;;;;12.32;5.57;;;13.80;99.90;;;;;;5402752;26;20413;-68
2024/04/13 06:58:06;;;;;;;11.98;5.30;;;13.70;99.90;;;;;;5397460;26;20014;-68
2024/04/13 07:00:33;;;;;;;14.02;6.35;;;13.80;99.90;;;;;;5397196;26;19999;-65
2024/04/13 07:03:00;;;;;;;10.55;4.97;;;13.80;99.90;;;;;;5397119;26;20096;-65
2024/04/13 07:05:27;;;;;;;10.80;5.32;;;13.80;99.90;;;;;;5385631;26;20004;-65
2024/04/13 07:07:54;;;;;;;8.20;4.90;;;13.80;99.90;;;;;;5393229;26;20012;-66
2024/04/13 07:10:21;;;;;;;14.98;6.07;;;13.90;99.90;;;;;;5374300;26;20016;-66
2024/04/13 07:12:48;;;;;;;11.90;5.10;;;13.90;99.90;;;;;;5381311;26;20011;-67
2024/04/13 07:15:15;;;;;;;11.35;5.35;;;13.90;99.90;;;;;;5389807;26;20008;-66
2024/04/13 07:17:42;;;;;;;11.60;5.40;;;14.00;99.90;;;;;;5400478;26;20080;-67
2024/04/13 07:20:11;;;;;;;15.18;5.18;;;14.00;99.90;;;;;;5389794;26;20653;-67
2024/04/13 07:22:37;;;;;;;10.65;5.43;;;14.00;99.90;;;;;;5396811;26;20030;-67
2024/04/13 07:25:04;;;;;;;11.98;5.53;;;14.00;99.90;;;;;;5391620;26;20076;-67
2024/04/13 07:27:32;;;;;;;10.07;5.07;;;14.10;99.90;;;;;;5384344;26;20012;-67
2024/04/13 07:30:00;;;;;;;14.75;6.28;;;14.10;99.90;;;;;;5379873;26;20015;-68
2024/04/13 07:32:28;;;;;;;11.40;5.13;;;14.20;99.90;;;;;;5381572;26;20004;-65
2024/04/13 07:34:55;;;;;;;12.98;5.60;;;14.30;99.90;;;;;;5398502;26;20020;-67
2024/04/13 07:37:22;;;;;;;10.63;4.90;;;14.40;99.90;;;;;;5381890;26;20015;-67
2024/04/13 07:39:49;;;;;;;9.30;4.80;;;14.50;99.90;;;;;;5401656;26;20081;-66
2024/04/13 07:42:16;;;;;;;12.60;5.40;;;14.60;99.90;;;;;;5389667;26;19995;-65
2024/04/13 07:44:43;;;;;;;11.13;4.80;;;14.60;99.90;;;;;;5384821;26;20036;-66
2024/04/13 07:47:10;;;;;;;10.05;4.18;;;14.60;99.90;;;;;;5392806;26;20007;-66
2024/04/13 07:49:37;;;;;;;9.90;4.35;;;14.60;99.90;;;;;;5397485;26;20401;-66
2024/04/13 07:52:04;;;;;;;6.85;3.97;;;14.60;99.90;;;;;;5408579;26;20015;-66
2024/04/13 07:54:31;;;;;;;8.60;4.18;;;14.70;99.90;;;;;;5394181;26;20019;-66
2024/04/13 07:56:58;;;;;;;9.48;4.43;;;14.80;99.90;;;;;;5407008;26;20000;-67
2024/04/13 07:59:25;;;;;;;10.40;3.92;;;14.70;99.90;;;;;;5395895;26;20015;-67
2024/04/13 08:01:52;;;;;;;10.00;4.38;;;14.70;99.90;;;;;;5398816;26;20085;-67
2024/04/13 08:04:19;;;;;;;12.20;5.28;;;14.80;99.90;;;;;;5398962;26;20008;-67
2024/04/13 08:06:46;;;;;;;8.85;4.07;;;14.80;99.90;;;;;;5392715;26;20020;-67
2024/04/13 08:09:13;;;;;;;12.32;4.63;;;14.80;99.90;;;;;;5397562;26;20016;-67
2024/04/13 08:11:40;;;;;;;9.48;4.53;;;14.80;99.90;;;;;;5409257;26;19999;-67
2024/04/13 08:14:08;;;;;;;8.77;4.10;;;14.80;99.90;;;;;;5383424;26;20535;-67
2024/04/13 08:16:39;;;;;;;11.68;4.30;;;14.90;99.90;;;;;;5392852;26;20004;-67
2024/04/13 08:19:06;;;;;;;11.95;3.95;;;15.00;99.90;;;;;;5400665;26;20023;-67
2024/04/13 08:21:34;;;;;;;12.63;4.18;;;15.00;99.90;;;;;;5393933;26;20028;-66
2024/04/13 08:24:02;;;;;;;14.05;4.90;;;15.00;99.90;;;;;;5402488;26;20000;-67
2024/04/13 08:26:28;;;;;;;14.60;5.68;;;15.00;99.90;;;;;;5389131;26;20004;-67
2024/04/13 08:28:55;;;;;;;11.05;5.47;;;15.00;99.90;;;;;;5381114;26;20000;-67
2024/04/13 08:31:22;;;;;;;12.98;6.00;;;15.00;99.90;;;;;;5388628;26;20001;-66
2024/04/13 08:33:50;;;;;;;8.77;5.80;;;15.10;99.90;;;;;;5381113;26;20000;-67
2024/04/13 08:36:17;;;;;;;11.23;6.28;;;15.20;99.90;;;;;;5393546;26;20004;-66
2024/04/13 08:38:44;;;;;;;11.63;6.20;;;15.20;99.90;;;;;;5383335;26;20322;-66
2024/04/13 08:41:23;;;;;;;8.13;5.95;;;15.20;99.90;;;;;;5396830;26;20011;-66
2024/04/13 08:43:50;;;;;;;16.20;6.88;;;15.30;99.90;;;;;;5396993;26;19997;-66
2024/04/13 08:46:17;;;;;;;12.35;7.10;;;15.30;99.90;;;;;;5390511;26;20014;-66
2024/04/13 08:48:44;;;;;;;21.00;7.90;;;15.40;99.90;;;;;;5400752;26;20000;-66
2024/04/13 08:51:12;;;;;;;15.68;7.97;;;15.40;99.90;;;;;;5398040;26;20048;-66
2024/04/13 08:53:39;;;;;;;11.02;7.00;;;15.40;99.90;;;;;;5366506;26;20014;-66
2024/04/13 08:56:06;;;;;;;18.17;7.55;;;15.40;99.90;;;;;;5400698;26;20035;-66
2024/04/13 08:58:38;;;;;;;15.23;7.05;;;15.50;99.90;;;;;;5389387;26;20000;-66
2024/04/13 09:01:07;;;;;;;10.70;7.22;;;15.50;99.90;;;;;;5390092;26;20004;-65
2024/04/13 09:03:34;;;;;;;12.98;6.63;;;15.50;99.90;;;;;;5361080;26;20019;-66
2024/04/13 09:06:02;;;;;;;10.98;6.55;;;15.40;99.90;;;;;;5401676;26;20019;-66
2024/04/13 09:08:31;;;;;;;14.50;6.05;;;15.50;99.90;;;;;;5372766;26;20241;-67
2024/04/13 09:10:59;;;;;;;12.35;5.88;;;15.60;99.90;;;;;;5398455;26;20328;-66
2024/04/13 09:13:26;;;;;;;8.18;4.85;;;15.80;99.90;;;;;;5373640;26;20037;-67
2024/04/13 09:15:53;;;;;;;15.90;5.10;;;15.80;99.90;;;;;;5381034;26;20084;-67
2024/04/13 09:18:20;;;;;;;11.98;5.10;;;15.80;99.90;;;;;;5383979;26;20011;-67
2024/04/13 09:20:47;;;;;;;10.27;4.97;;;15.80;99.90;;;;;;5388986;26;20004;-67
2024/04/13 09:23:14;;;;;;;12.63;4.43;;;15.80;99.90;;;;;;5369397;26;20012;-67
2024/04/13 09:25:41;;;;;;;13.23;4.28;;;15.90;99.90;;;;;;5396001;26;20003;-67
2024/04/13 09:28:08;;;;;;;14.02;4.32;;;16.00;99.90;;;;;;5397860;26;20000;-65
2024/04/13 09:30:35;;;;;;;8.07;4.47;;;16.10;99.90;;;;;;5392911;26;20000;-66
2024/04/13 09:33:10;;;;;;;8.77;4.25;;;16.30;99.90;;;;;;5393962;26;20349;-66
2024/04/13 09:35:37;;;;;;;8.32;3.60;;;16.40;99.90;;;;;;5400250;26;20000;-66
2024/04/13 09:38:04;;;;;;;8.02;3.97;;;16.60;99.90;;;;;;5385410;26;20010;-66
2024/04/13 09:40:31;;;;;;;10.27;4.30;;;16.80;99.90;;;;;;5381168;26;20514;-67
2024/04/13 09:43:01;;;;;;;9.95;4.03;;;17.10;99.90;;;;;;5385831;26;20037;-66
2024/04/13 09:45:28;;;;;;;9.18;4.03;;;17.20;99.90;;;;;;5398354;26;19995;-66
2024/04/13 09:47:58;;;;;;;8.18;3.65;;;17.50;99.90;;;;;;5399784;26;20044;-66
2024/04/13 09:50:27;;;;;;;10.38;3.78;;;17.70;99.90;;;;;;5387306;26;20014;-66
2024/04/13 09:52:54;;;;;;;16.08;3.65;;;17.80;99.90;;;;;;5384412;26;20469;-66
2024/04/13 09:55:21;;;;;;;7.45;3.35;;;18.00;99.90;;;;;;5372618;26;20000;-65
2024/04/13 09:57:49;;;;;;;8.95;3.33;;;17.90;99.90;;;;;;5383085;26;20018;-66
2024/04/13 10:00:16;;;;;;;7.47;3.85;;;18.00;99.90;;;;;;5379720;26;20000;-66
2024/04/13 10:02:44;;;;;;;8.13;3.60;;;18.10;99.90;;;;;;5381984;26;20004;-66
2024/04/13 10:05:11;;;;;;;8.73;3.30;;;18.30;99.90;;;;;;5387485;26;20004;-65
2024/04/13 10:07:39;;;;;;;11.05;3.92;;;18.30;99.90;;;;;;5393227;26;20487;-67
2024/04/13 10:10:07;;;;;;;8.02;3.58;;;18.50;99.90;;;;;;5390077;26;20457;-65
2024/04/13 10:12:37;;;;;;;9.25;3.20;;;18.60;99.90;;;;;;5395531;26;20008;-65
2024/04/13 10:15:04;;;;;;;7.82;2.88;;;18.50;99.90;;;;;;5400516;26;20019;-66
2024/04/13 10:17:31;;;;;;;6.93;2.90;;;18.50;99.90;;;;;;5372025;26;20004;-66
2024/04/13 10:19:59;;;;;;;7.10;2.42;;;18.30;99.90;;;;;;5384034;26;20010;-66
2024/04/13 10:22:26;;;;;;;6.60;3.22;;;18.30;99.90;;;;;;5358686;26;20015;-65
2024/04/13 10:25:06;;;;;;;4.47;2.22;;;18.40;99.90;;;;;;5388688;26;20003;-65
2024/04/13 10:27:33;;;;;;;6.57;3.05;;;18.40;99.90;;;;;;5375762;26;20008;-66
2024/04/13 10:30:01;;;;;;;7.45;3.63;;;18.40;99.90;;;;;;5394592;26;20629;-65
2024/04/13 10:32:28;;;;;;;4.90;2.50;;;18.40;99.90;;;;;;5381178;26;20030;-66
2024/04/13 10:34:58;;;;;;;8.02;2.65;;;18.40;99.90;;;;;;5390278;26;20004;-65
2024/04/13 10:37:32;;;;;;;5.45;1.90;;;18.30;99.90;;;;;;5382865;26;20467;-66
2024/04/13 10:40:01;;;;;;;9.18;2.95;;;18.30;99.90;;;;;;5397175;26;20003;-66
2024/04/13 10:42:41;;;;;;;4.88;2.25;;;18.30;99.90;;;;;;5398557;26;20013;-65
2024/04/13 10:45:15;;;;;;;7.32;2.58;;;18.40;99.90;;;;;;5387189;26;20052;-65
2024/04/13 10:47:43;;;;;;;7.70;3.10;;;18.50;99.90;;;;;;5399228;26;20014;-65
2024/04/13 10:50:14;;;;;;;7.57;2.97;;;18.50;99.90;;;;;;5398796;26;20008;-65
2024/04/13 10:52:41;;;;;;;5.75;2.00;;;18.50;99.90;;;;;;5405663;26;20072;-65
2024/04/13 10:55:12;;;;;;;5.15;2.08;;;18.60;99.90;;;;;;5399465;26;20012;-66
2024/04/13 10:57:41;;;;;;;6.60;2.50;;;18.60;99.90;;;;;;5392199;26;20476;-64
2024/04/13 11:00:08;;;;;;;8.15;2.50;;;18.60;99.90;;;;;;5390528;26;20028;-65
2024/04/13 11:02:37;;;;;;;8.75;2.33;;;18.70;99.90;;;;;;5391960;26;20928;-65
2024/04/13 11:05:05;;;;;;;8.23;2.60;;;18.80;99.90;;;;;;5398783;26;20036;-64
2024/04/13 11:07:31;;;;;;;7.03;2.63;;;18.90;99.90;;;;;;5400186;26;20054;-65
2024/04/13 11:09:58;;;;;;;7.75;1.90;;;18.90;99.90;;;;;;5397615;26;20016;-65
2024/04/13 11:12:25;;;;;;;8.73;2.15;;;18.80;99.90;;;;;;5402622;26;20346;-66
2024/04/13 11:14:53;;;;;;;7.15;2.55;;;18.80;99.90;;;;;;5387645;26;20023;-66
2024/04/13 11:17:20;;;;;;;7.43;1.95;;;18.70;99.90;;;;;;5392916;26;20004;-66
2024/04/13 11:19:47;;;;;;;7.93;2.30;;;18.80;99.90;;;;;;5394776;26;19999;-65
2024/04/13 11:22:14;;;;;;;4.15;1.83;;;18.90;99.90;;;;;;5392130;26;20044;-65
2024/04/13 11:24:41;;;;;;;6.00;2.15;;;18.90;99.90;;;;;;5406771;26;20528;-65
2024/04/13 11:27:08;;;;;;;6.85;1.85;;;18.80;99.90;;;;;;5384311;26;20015;-66
2024/04/13 11:29:35;;;;;;;4.53;1.80;;;18.90;99.90;;;;;;5405005;26;20470;-66
2024/04/13 11:32:02;;;;;;;9.00;2.95;;;19.00;99.90;;;;;;5396961;26;20026;-64
2024/04/13 11:34:29;;;;;;;7.05;1.95;;;19.10;99.90;;;;;;5398105;26;20015;-64
2024/04/13 11:37:03;;;;;;;8.98;2.40;;;19.10;99.90;;;;;;5395736;26;20015;-65
2024/04/13 11:39:37;;;;;;;4.22;1.67;;;19.20;99.90;;;;;;5379870;26;20016;-65
2024/04/13 11:42:04;;;;;;;5.68;2.35;;;19.20;99.90;;;;;;5380845;26;20451;-65
2024/04/13 11:44:31;;;;;;;8.10;2.38;;;19.30;99.90;;;;;;5379175;26;20016;-66
2024/04/13 11:47:01;;;;;;;6.13;2.03;;;19.40;99.90;;;;;;5382205;26;19999;-65
2024/04/13 11:49:28;;;;;;;9.50;1.90;;;19.50;99.90;;;;;;5383944;26;19997;-65
2024/04/13 11:51:59;;;;;;;7.53;2.38;;;19.50;99.90;;;;;;5399130;26;20447;-65
2024/04/13 11:54:27;;;;;;;8.57;1.70;;;19.70;99.90;;;;;;5403339;26;20004;-65
2024/04/13 11:56:54;;;;;;;7.57;1.60;;;19.80;99.90;;;;;;5395776;26;20375;-65
2024/04/13 11:59:21;;;;;;;6.60;1.92;;;19.80;99.90;;;;;;5382497;26;20091;-65
2024/04/13 12:01:48;;;;;;;5.50;1.90;;;19.90;99.90;;;;;;5385593;26;20027;-66
2024/04/13 12:04:15;;;;;;;5.28;1.73;;;19.80;99.90;;;;;;5398338;26;20466;-66
2024/04/13 12:06:42;;;;;;;9.80;1.98;;;19.80;99.90;;;;;;5391091;26;20016;-65
2024/04/13 12:09:09;;;;;;;4.65;1.80;;;19.80;99.90;;;;;;5396595;26;20011;-65
2024/04/13 12:11:36;;;;;;;7.50;2.10;;;19.70;99.90;;;;;;5377445;26;20395;-66
2024/04/13 12:14:04;;;;;;;5.15;2.10;;;19.80;99.90;;;;;;5389676;26;20103;-65
2024/04/13 12:16:31;;;;;;;6.30;1.90;;;19.90;99.90;;;;;;5387904;26;20015;-66
2024/04/13 12:18:58;;;;;;;7.50;1.65;;;20.00;99.90;;;;;;5387523;26;20015;-65
2024/04/13 12:21:25;;;;;;;3.20;1.65;;;20.00;99.90;;;;;;5387736;26;20077;-65
2024/04/13 12:23:52;;;;;;;11.95;2.60;;;20.10;99.90;;;;;;5397116;26;20000;-65
2024/04/13 12:26:19;;;;;;;5.93;1.70;;;20.10;99.90;;;;;;5378363;26;20015;-66
2024/04/13 12:28:46;;;;;;;7.90;2.20;;;20.10;99.90;;;;;;5384414;26;20451;-64
2024/04/13 12:31:14;;;;;;;6.40;1.75;;;20.20;99.90;;;;;;5380310;26;20054;-66
2024/04/13 12:33:44;;;;;;;5.25;1.58;;;20.40;99.90;;;;;;5382702;26;20000;-66
2024/04/13 12:36:11;;;;;;;3.25;1.30;;;20.40;99.90;;;;;;5380889;26;19999;-64
2024/04/13 12:38:38;;;;;;;6.22;1.98;;;20.50;99.90;;;;;;5384982;26;20518;-65
2024/04/13 12:41:05;;;;;;;7.47;2.00;;;20.50;99.90;;;;;;5396393;26;20011;-65
2024/04/13 12:43:32;;;;;;;5.57;1.92;;;20.50;99.90;;;;;;5399774;26;20702;-65
2024/04/13 12:45:59;;;;;;;7.35;1.73;;;20.50;99.90;;;;;;5407892;26;20296;-65